Time;durP1;ratioP1;P1;durP2;ratioP2;P2;SDS_P1;SDS_P2;PMS_P1;PMS_P2;Temp;Humidity;BMP_temperature;BMP_pressure;BME280_temperature;BME280_humidity;BME280_pressure;Samples;Min_cycle;Max_cycle;Signal;HPM_P1;HPM_P2
2022/01/03 00:00:50;;;;;;;26.13;5.18;;;;;;;11.07;87.37;101044.19;5002477;28;20056;-50
2022/01/03 00:03:19;;;;;;;20.45;4.93;;;;;;;11.06;86.83;101061.66;5014554;28;20049;-48
2022/01/03 00:05:47;;;;;;;16.90;4.40;;;;;;;11.09;86.70;101065.75;5013066;28;20042;-51
2022/01/03 00:08:14;;;;;;;19.00;4.70;;;;;;;11.09;86.97;101063.03;5014670;28;20581;-48
2022/01/03 00:10:42;;;;;;;20.52;5.28;;;;;;;11.04;86.84;101058.38;5011531;28;20049;-49
2022/01/03 00:13:10;;;;;;;24.23;5.03;;;;;;;11.00;86.86;101062.72;5006914;28;20049;-48
2022/01/03 00:15:37;;;;;;;22.27;5.40;;;;;;;11.03;87.53;101064.09;5014149;28;20089;-47
2022/01/03 00:18:05;;;;;;;24.92;5.35;;;;;;;11.04;87.59;101063.81;5014069;28;20058;-45
2022/01/03 00:20:33;;;;;;;23.05;5.72;;;;;;;11.03;87.09;101056.72;5013944;28;20053;-48
2022/01/03 00:23:06;;;;;;;21.05;5.45;;;;;;;11.04;88.16;101069.28;5012014;28;20042;-47
2022/01/03 00:25:37;;;;;;;24.05;5.90;;;;;;;11.02;87.79;101071.44;4992571;28;20141;-48
2022/01/03 00:28:18;;;;;;;26.75;6.38;;;;;;;10.99;87.35;101068.41;4994242;28;20042;-49
2022/01/03 00:30:47;;;;;;;21.75;4.75;;;;;;;11.00;87.50;101068.16;4995414;28;20141;-49
2022/01/03 00:33:16;;;;;;;24.90;6.10;;;;;;;10.99;88.17;101066.53;4993171;28;20408;-52
2022/01/03 00:35:43;;;;;;;26.73;5.65;;;;;;;10.99;87.09;101062.97;5009831;28;20440;-48
2022/01/03 00:38:12;;;;;;;23.42;5.15;;;;;;;10.98;87.29;101075.78;4993881;28;20497;-49
2022/01/03 00:40:41;;;;;;;22.25;5.47;;;;;;;10.95;87.89;101062.69;4994157;28;20053;-51
2022/01/03 00:43:08;;;;;;;21.85;4.97;;;;;;;11.00;88.08;101073.63;5008579;28;20404;-53
2022/01/03 00:45:36;;;;;;;23.23;5.78;;;;;;;10.98;87.15;101070.31;4994134;28;20050;-51
2022/01/03 00:48:08;;;;;;;25.45;5.97;;;;;;;10.97;87.05;101078.78;4992880;28;20038;-49
2022/01/03 00:50:36;;;;;;;23.58;5.95;;;;;;;10.97;87.22;101073.34;4992942;28;20084;-48
2022/01/03 00:53:04;;;;;;;22.65;5.80;;;;;;;10.99;87.36;101077.44;5006404;28;20050;-49
2022/01/03 00:55:32;;;;;;;19.95;5.60;;;;;;;11.00;86.05;101087.25;5006247;28;20054;-50
2022/01/03 00:58:06;;;;;;;19.13;5.53;;;;;;;10.97;86.71;101085.06;4993913;28;20043;-52
2022/01/03 01:00:42;;;;;;;21.08;5.45;;;;;;;10.98;85.98;101088.59;4994436;28;20093;-49
2022/01/03 01:03:12;;;;;;;;;;;;;;;11.02;87.59;101076.91;4993134;28;20413;-49
2022/01/03 01:05:43;;;;;;;26.77;5.65;;;;;;;10.97;85.87;101090.50;4992642;28;19925;-48
2022/01/03 01:08:12;;;;;;;22.27;4.85;;;;;;;10.93;85.39;101086.66;4976700;28;20042;-47
2022/01/03 01:10:41;;;;;;;21.50;5.55;;;;;;;10.94;85.47;101074.66;4992374;28;20046;-48
2022/01/03 01:13:10;;;;;;;22.75;5.10;;;;;;;10.98;85.40;101081.22;5008074;28;20042;-48
2022/01/03 01:15:41;;;;;;;22.83;5.32;;;;;;;10.99;85.30;101088.34;5012368;28;20046;-50
2022/01/03 01:18:10;;;;;;;22.85;5.78;;;;;;;10.98;85.83;101086.69;5011904;28;20451;-50
2022/01/03 01:20:39;;;;;;;21.25;5.40;;;;;;;11.00;85.63;101095.44;5012943;28;20447;-49
2022/01/03 01:23:10;;;;;;;23.55;5.43;;;;;;;10.99;85.21;101085.63;5011477;28;20050;-50
2022/01/03 01:28:14;;;;;;;22.25;4.93;;;;;;;10.96;85.14;101088.84;5011906;28;20038;-49
2022/01/03 01:30:43;;;;;;;20.88;5.45;;;;;;;10.94;84.35;101096.47;5013073;28;20477;-50
2022/01/03 01:33:14;;;;;;;22.95;5.22;;;;;;;11.00;84.68;101111.78;5011551;28;20072;-51
2022/01/03 01:35:52;;;;;;;21.95;5.45;;;;;;;10.98;84.58;101091.31;5012327;28;20046;-50
2022/01/03 01:38:33;;;;;;;19.20;4.82;;;;;;;10.99;84.21;101087.50;5011361;28;20806;-53
2022/01/03 01:41:03;;;;;;;24.65;6.00;;;;;;;10.98;83.92;101102.22;5012984;28;20046;-48
2022/01/03 01:43:33;;;;;;;23.27;5.75;;;;;;;10.94;84.37;101091.00;5009021;28;20081;-51
2022/01/03 01:46:05;;;;;;;23.08;5.50;;;;;;;10.95;85.04;101089.94;5011518;28;20050;-49
2022/01/03 01:48:36;;;;;;;23.98;5.20;;;;;;;10.94;85.15;101101.91;5012987;28;20160;-53
2022/01/03 01:51:08;;;;;;;21.00;4.80;;;;;;;10.93;84.71;101100.28;5011553;28;20053;-50
2022/01/03 01:53:42;;;;;;;23.80;5.05;;;;;;;10.94;84.21;101096.47;5000054;28;20093;-51
2022/01/03 01:56:16;;;;;;;22.10;5.38;;;;;;;10.97;84.86;101095.16;4991981;28;20050;-47
2022/01/03 01:59:02;;;;;;;18.35;4.97;;;;;;;10.93;84.49;101094.84;4991704;28;20137;-50
2022/01/03 02:01:44;;;;;;;20.02;5.50;;;;;;;10.90;83.77;101100.00;5007291;28;20058;-48
2022/01/03 02:04:35;;;;;;;26.02;5.32;;;;;;;10.90;84.08;101106.28;5008336;28;20050;-45
2022/01/03 02:07:25;;;;;;;22.98;5.95;;;;;;;10.88;84.62;101108.44;4975768;28;20046;-50
2022/01/03 02:10:03;;;;;;;19.70;5.32;;;;;;;10.87;84.22;101109.50;5008109;28;20050;-49
2022/01/03 02:12:38;;;;;;;23.25;5.20;;;;;;;10.89;84.55;101099.16;5009586;28;20507;-50
2022/01/03 02:15:11;;;;;;;16.60;4.28;;;;;;;10.85;84.43;101107.06;4991639;28;20420;-46
2022/01/03 02:17:40;;;;;;;25.10;5.28;;;;;;;10.85;84.18;101106.25;5008337;28;20129;-47
2022/01/03 02:20:11;;;;;;;20.70;5.60;;;;;;;10.84;84.53;101107.31;4991414;28;20062;-48
2022/01/03 02:22:40;;;;;;;21.00;5.40;;;;;;;10.85;84.60;101112.53;4992606;28;20053;-50
2022/01/03 02:25:14;;;;;;;19.02;4.97;;;;;;;10.86;84.16;101105.16;4991361;28;20113;-48
2022/01/03 02:27:44;;;;;;;23.05;5.47;;;;;;;10.84;85.46;101118.22;4993340;28;20043;-48
2022/01/03 02:30:15;;;;;;;19.65;5.03;;;;;;;10.80;85.05;101117.09;4992633;28;20073;-50
2022/01/03 02:32:43;;;;;;;21.33;5.20;;;;;;;10.79;85.23;101115.47;4995312;28;20050;-48
2022/01/03 02:35:11;;;;;;;23.05;5.10;;;;;;;10.80;85.14;101115.22;4991321;28;20073;-49
2022/01/03 02:37:39;;;;;;;32.78;6.03;;;;;;;10.79;84.74;101107.28;4992973;28;20137;-50
2022/01/03 02:40:13;;;;;;;19.73;5.45;;;;;;;10.80;84.66;101115.22;4992622;28;20078;-49
2022/01/03 02:42:43;;;;;;;19.80;5.78;;;;;;;10.78;84.70;101109.19;5009864;28;20493;-51
2022/01/03 02:45:23;;;;;;;27.02;6.28;;;;;;;10.78;85.63;101106.47;5007870;28;20564;-52
2022/01/03 02:47:54;;;;;;;20.58;4.93;;;;;;;10.77;84.50;101112.19;4995815;28;20126;-48
2022/01/03 02:50:24;;;;;;;19.88;5.43;;;;;;;10.76;85.09;101100.47;4994798;28;20050;-48
2022/01/03 02:52:52;;;;;;;28.10;6.65;;;;;;;10.73;85.15;101116.53;4995803;28;20046;-48
2022/01/03 02:55:22;;;;;;;22.33;5.45;;;;;;;10.77;85.11;101104.00;4994825;28;20493;-51
2022/01/03 02:57:52;;;;;;;16.80;4.63;;;;;;;10.71;85.32;101103.16;4997351;28;20069;-47
2022/01/03 03:00:24;;;;;;;22.92;5.00;;;;;;;10.71;85.53;101110.50;4994951;28;20076;-50
2022/01/03 03:02:51;;;;;;;20.02;4.88;;;;;;;10.70;85.64;101106.13;4996766;28;20478;-48
2022/01/03 03:05:22;;;;;;;24.25;5.68;;;;;;;10.69;85.51;101109.94;4994751;28;20108;-51
2022/01/03 03:07:50;;;;;;;20.17;4.88;;;;;;;10.68;85.77;101111.00;4995965;28;20038;-50
2022/01/03 03:10:20;;;;;;;25.40;5.43;;;;;;;10.69;85.69;101107.22;4994568;28;20038;-52
2022/01/03 03:12:50;;;;;;;21.70;4.97;;;;;;;10.72;85.36;101104.78;4995747;28;20501;-50
2022/01/03 03:15:18;;;;;;;15.95;4.85;;;;;;;10.68;85.22;101108.28;4994641;28;20448;-50
2022/01/03 03:17:47;;;;;;;21.00;5.20;;;;;;;10.65;85.46;101115.94;5003641;28;20038;-50
2022/01/03 03:20:20;;;;;;;24.98;5.63;;;;;;;10.65;85.82;101118.66;5014817;28;20108;-52
2022/01/03 03:22:50;;;;;;;20.08;5.07;;;;;;;10.63;85.56;101123.53;5013522;28;20044;-49
2022/01/03 03:25:26;;;;;;;24.50;5.22;;;;;;;10.64;85.50;101125.16;5013392;28;20049;-50
2022/01/03 03:27:57;;;;;;;19.52;5.30;;;;;;;10.66;85.53;101123.00;5013851;28;20531;-54
2022/01/03 03:30:38;;;;;;;18.20;4.65;;;;;;;10.63;86.02;101123.53;5013497;28;20076;-48
2022/01/03 03:33:22;;;;;;;22.67;5.88;;;;;;;10.60;86.52;101121.31;5009645;28;20093;-53
2022/01/03 03:35:59;;;;;;;21.77;4.85;;;;;;;10.69;86.08;101118.94;4996322;28;20047;-50
2022/01/03 03:38:28;;;;;;;22.55;6.15;;;;;;;10.74;86.03;101116.25;5009866;28;20568;-49
2022/01/03 03:40:58;;;;;;;20.70;5.28;;;;;;;10.71;86.40;101103.16;4993991;28;20058;-48
2022/01/03 03:43:31;;;;;;;29.63;6.15;;;;;;;10.76;86.14;101124.16;5006626;28;20046;-50
2022/01/03 03:46:01;;;;;;;23.45;5.78;;;;;;;10.71;86.03;101129.59;5011973;28;20034;-50
2022/01/03 03:48:31;;;;;;;24.20;5.72;;;;;;;10.66;86.50;101114.84;5006453;28;20108;-51
2022/01/03 03:51:00;;;;;;;28.65;5.72;;;;;;;10.62;86.71;101110.16;4993891;28;20142;-47
2022/01/03 03:53:28;;;;;;;23.52;5.40;;;;;;;10.63;86.57;101111.78;4993526;28;20049;-48
2022/01/03 03:55:56;;;;;;;21.85;5.90;;;;;;;10.58;86.79;101109.03;5006746;28;20046;-50
2022/01/03 03:58:27;;;;;;;24.77;5.65;;;;;;;10.55;86.84;101118.56;5008474;28;20047;-49
2022/01/03 04:00:54;;;;;;;23.92;5.75;;;;;;;10.60;86.92;101107.69;4994330;28;20042;-46
2022/01/03 04:03:37;;;;;;;26.38;6.85;;;;;;;10.59;86.98;101105.25;5009848;28;20157;-49
2022/01/03 04:06:05;;;;;;;27.95;6.28;;;;;;;10.84;86.17;101112.78;5008740;28;20140;-53
2022/01/03 04:08:33;;;;;;;23.77;5.13;;;;;;;10.77;86.32;101117.63;5012573;28;20100;-50
2022/01/03 04:11:01;;;;;;;26.38;6.00;;;;;;;10.71;86.42;101118.69;5012530;28;20443;-49
2022/01/03 04:13:31;;;;;;;21.92;5.43;;;;;;;10.79;88.95;101116.28;4996408;28;20104;-49
2022/01/03 04:15:58;;;;;;;22.38;5.32;;;;;;;10.72;86.60;101099.34;5002030;28;20042;-48
2022/01/03 04:18:26;;;;;;;20.08;4.95;;;;;;;10.68;86.67;101098.22;5012543;28;20431;-52
2022/01/03 04:20:54;;;;;;;26.95;6.00;;;;;;;10.63;86.66;101107.19;5013771;28;20414;-50
2022/01/03 04:23:24;;;;;;;25.73;5.88;;;;;;;10.60;87.31;101095.97;5012359;28;20046;-45
2022/01/03 04:25:52;;;;;;;24.05;6.03;;;;;;;10.57;87.17;101086.44;5011498;28;20054;-45
2022/01/03 04:28:20;;;;;;;20.55;5.40;;;;;;;10.65;87.80;101098.72;4993148;28;20089;-48
2022/01/03 04:30:48;;;;;;;27.70;6.32;;;;;;;10.64;87.44;101097.09;4984099;28;20074;-48
2022/01/03 04:33:16;;;;;;;19.17;5.10;;;;;;;10.63;87.04;101090.84;4994282;28;20514;-51
2022/01/03 04:35:43;;;;;;;23.98;5.63;;;;;;;10.61;87.15;101087.56;4993736;28;20042;-45
2022/01/03 04:38:11;;;;;;;27.67;5.70;;;;;;;10.65;87.45;101093.28;4994215;28;20042;-44
2022/01/03 04:40:39;;;;;;;24.08;6.13;;;;;;;10.63;86.94;101090.84;5009006;28;20070;-44
2022/01/03 04:43:06;;;;;;;20.60;5.60;;;;;;;10.60;87.40;101096.78;4993734;28;20076;-45
2022/01/03 04:45:34;;;;;;;23.10;5.65;;;;;;;10.60;87.58;101085.06;5010119;28;20053;-46
2022/01/03 04:48:02;;;;;;;26.42;6.35;;;;;;;10.58;87.56;101096.25;4995334;28;20042;-44
2022/01/03 04:50:29;;;;;;;24.83;5.43;;;;;;;10.56;87.88;101090.25;5009040;28;20074;-44
2022/01/03 04:52:57;;;;;;;21.80;5.40;;;;;;;10.55;87.39;101093.22;4993732;28;20493;-44
2022/01/03 04:55:25;;;;;;;26.98;5.65;;;;;;;10.53;88.25;101090.75;4992877;28;20096;-44
2022/01/03 04:57:53;;;;;;;21.85;5.60;;;;;;;10.55;87.79;101091.31;5010564;28;20517;-44
2022/01/03 05:00:21;;;;;;;22.60;5.95;;;;;;;10.59;87.51;101089.72;5009066;28;20042;-47
2022/01/03 05:02:49;;;;;;;23.40;5.82;;;;;;;10.59;87.88;101083.44;4992586;28;20080;-45
2022/01/03 05:05:17;;;;;;;24.50;5.53;;;;;;;10.57;87.69;101074.72;4992704;28;20054;-44
2022/01/03 05:07:46;;;;;;;24.75;5.40;;;;;;;10.55;87.55;101088.59;4992514;28;20047;-44
2022/01/03 05:10:14;;;;;;;28.48;6.38;;;;;;;10.56;87.43;101082.06;4993415;28;20046;-45
2022/01/03 05:12:41;;;;;;;22.05;5.57;;;;;;;10.52;87.54;101082.84;4999725;28;20042;-44
2022/01/03 05:15:09;;;;;;;23.85;5.93;;;;;;;10.52;88.27;101082.84;5012109;28;20041;-45
2022/01/03 05:17:37;;;;;;;20.05;4.85;;;;;;;10.53;88.44;101068.94;5010587;28;20052;-44
2022/01/03 05:20:05;;;;;;;25.42;5.60;;;;;;;10.52;87.49;101072.75;4992156;28;20054;-44
2022/01/03 05:22:34;;;;;;;24.48;5.97;;;;;;;10.52;87.51;101072.75;4992408;28;20141;-49
2022/01/03 05:25:02;;;;;;;20.15;5.70;;;;;;;10.51;87.17;101060.25;4991765;28;20501;-46
2022/01/03 05:27:30;;;;;;;21.80;5.32;;;;;;;10.50;87.58;101066.75;4992295;28;20043;-49
2022/01/03 05:29:58;;;;;;;28.50;6.25;;;;;;;10.50;87.53;101068.66;5002185;28;20493;-49
2022/01/03 05:32:26;;;;;;;26.02;5.57;;;;;;;10.53;87.27;101065.41;5008626;28;20104;-49
2022/01/03 05:34:54;;;;;;;16.65;4.45;;;;;;;10.54;87.70;101048.00;5008602;28;20046;-50
2022/01/03 05:37:22;;;;;;;22.27;5.28;;;;;;;10.53;87.90;101049.88;4992038;28;20121;-50
2022/01/03 05:39:50;;;;;;;23.08;5.63;;;;;;;10.54;87.23;101065.16;4991972;28;20046;-50
2022/01/03 05:42:17;;;;;;;24.42;6.45;;;;;;;10.53;87.57;101052.59;4996401;28;20037;-48
2022/01/03 05:44:45;;;;;;;26.17;6.00;;;;;;;10.56;87.26;101052.09;5011508;28;20096;-50
2022/01/03 05:47:13;;;;;;;21.60;5.30;;;;;;;10.56;88.02;101057.53;5011733;28;20042;-49
2022/01/03 05:49:42;;;;;;;21.85;5.10;;;;;;;10.56;88.12;101043.94;4997196;28;20050;-48
2022/01/03 05:52:10;;;;;;;22.02;5.70;;;;;;;10.53;87.58;101055.31;4992105;28;20058;-48
2022/01/03 05:54:37;;;;;;;19.48;4.85;;;;;;;10.53;88.25;101047.16;5007959;28;20070;-49
2022/01/03 05:57:05;;;;;;;25.13;5.80;;;;;;;10.52;87.75;101040.06;5008413;28;20141;-45
2022/01/03 05:59:34;;;;;;;27.00;6.40;;;;;;;10.54;88.12;101048.00;5009355;28;20038;-45
2022/01/03 06:02:03;;;;;;;27.20;5.50;;;;;;;10.52;88.45;101037.34;4996281;28;20138;-47
2022/01/03 06:07:32;;;;;;;23.10;6.50;;;;;;;10.52;87.79;101045.53;5010401;28;20049;-55
2022/01/03 06:10:00;;;;;;;24.92;5.97;;;;;;;10.52;87.99;101045.53;5009966;28;20120;-49
2022/01/03 06:12:29;;;;;;;29.08;6.63;;;;;;;10.50;88.03;101042.22;4993752;28;20042;-52
2022/01/03 06:14:56;;;;;;;20.38;5.18;;;;;;;10.46;88.30;101046.56;5010366;28;20515;-50
2022/01/03 06:17:24;;;;;;;24.67;5.93;;;;;;;10.43;88.00;101038.91;4993858;28;20050;-48
2022/01/03 06:19:55;;;;;;;22.67;6.45;;;;;;;10.43;88.70;101036.19;4977693;28;20475;-49
2022/01/03 06:22:23;;;;;;;20.73;5.63;;;;;;;10.44;88.34;101037.84;5000517;28;20567;-48
2022/01/03 06:24:55;;;;;;;19.95;5.15;;;;;;;10.54;88.17;101037.91;4997350;28;20145;-51
2022/01/03 06:27:23;;;;;;;19.55;4.90;;;;;;;10.52;88.03;101031.91;4997453;28;20475;-49
2022/01/03 06:29:51;;;;;;;21.45;5.50;;;;;;;10.52;88.28;101037.34;4996447;28;20595;-47
2022/01/03 06:32:18;;;;;;;12.07;3.55;;;;;;;10.56;89.74;101030.31;4993097;28;20085;-48
2022/01/03 06:34:47;;;;;;;22.42;5.43;;;;;;;10.52;87.95;101029.19;5011687;28;20455;-51
2022/01/03 06:37:14;;;;;;;24.48;5.88;;;;;;;10.51;88.16;101032.16;5014401;28;20057;-47
2022/01/03 06:40:01;;;;;;;21.80;5.47;;;;;;;10.49;87.79;101029.72;4996760;28;20065;-48
2022/01/03 06:42:29;;;;;;;22.73;5.25;;;;;;;10.52;88.03;101018.28;5001101;28;20125;-51
2022/01/03 06:44:57;;;;;;;18.77;4.97;;;;;;;10.49;87.86;101024.25;4994519;28;20067;-47
2022/01/03 06:47:25;;;;;;;22.95;5.75;;;;;;;10.51;88.07;101015.81;4995151;28;20050;-52
2022/01/03 06:49:53;;;;;;;19.70;4.90;;;;;;;10.53;89.04;101014.47;4995208;28;20097;-54
2022/01/03 06:52:21;;;;;;;19.40;5.45;;;;;;;10.49;88.21;101007.09;5006968;28;20097;-52
2022/01/03 06:54:49;;;;;;;18.23;4.60;;;;;;;10.55;89.09;101012.28;5010838;28;20402;-52
2022/01/03 06:57:16;;;;;;;20.10;5.22;;;;;;;10.52;88.21;101017.47;4315831;28;10000709;-51
2022/01/03 06:59:46;;;;;;;18.15;5.00;;;;;;;10.51;88.64;101016.66;4992959;28;20081;-49
2022/01/03 07:02:14;;;;;;;18.65;4.90;;;;;;;10.49;88.80;101012.56;4977883;28;20074;-51
2022/01/03 07:04:42;;;;;;;17.70;5.18;;;;;;;10.47;88.70;101010.06;4998958;28;20092;-49
2022/01/03 07:07:10;;;;;;;20.15;5.13;;;;;;;10.47;88.99;101015.53;5014074;28;20057;-51
2022/01/03 07:09:38;;;;;;;19.13;4.63;;;;;;;10.41;89.32;101019.28;5013715;28;20049;-53
2022/01/03 07:12:06;;;;;;;21.63;5.60;;;;;;;10.38;89.78;101014.38;5009798;28;20026;-49
2022/01/03 07:19:54;;;;;;;18.50;4.88;;;;;;;10.33;90.24;101014.34;4994049;28;20058;-50
2022/01/03 07:22:21;;;;;;;13.38;3.95;;;;;;;10.35;90.28;101017.63;5004451;28;20065;-52
2022/01/03 07:24:50;;;;;;;23.30;4.95;;;;;;;10.33;90.13;101011.63;5013156;28;20050;-52
2022/01/03 07:27:18;;;;;;;14.60;4.40;;;;;;;10.32;90.74;101020.84;5013375;28;20042;-52
2022/01/03 07:29:48;;;;;;;15.63;4.65;;;;;;;10.34;91.01;101022.25;5013518;28;20108;-50
2022/01/03 07:32:16;;;;;;;16.95;4.43;;;;;;;10.40;91.49;101014.94;5010247;28;20045;-50
2022/01/03 07:34:43;;;;;;;17.30;3.72;;;;;;;10.40;91.49;101014.94;5012131;28;20060;-49
2022/01/03 07:37:11;;;;;;;21.38;4.38;;;;;;;10.53;92.85;101016.38;5013261;28;20050;-49
2022/01/03 07:39:39;;;;;;;15.13;4.05;;;;;;;10.50;91.91;101020.44;5012815;28;20054;-47
2022/01/03 07:42:07;;;;;;;21.00;4.97;;;;;;;10.49;91.59;101012.56;5010207;28;20591;-46
2022/01/03 07:44:43;;;;;;;21.92;4.95;;;;;;;10.42;91.82;101015.50;5011047;28;20358;-51
2022/01/03 07:47:11;;;;;;;20.20;4.50;;;;;;;10.41;92.28;101022.00;5012872;28;20046;-51
2022/01/03 07:49:39;;;;;;;18.13;4.00;;;;;;;10.38;92.05;101017.09;5013033;28;20050;-51
2022/01/03 07:52:06;;;;;;;18.92;5.07;;;;;;;10.36;92.27;101020.06;5005525;28;20054;-48
2022/01/03 07:54:34;;;;;;;17.65;4.85;;;;;;;10.39;93.21;101018.72;4999250;28;20136;-50
2022/01/03 07:57:03;;;;;;;20.52;5.10;;;;;;;10.42;92.42;101020.94;5006697;28;20430;-49
2022/01/03 07:59:31;;;;;;;13.77;3.58;;;;;;;10.45;94.32;101023.13;4992935;28;20093;-53
2022/01/03 08:01:59;;;;;;;19.90;4.68;;;;;;;10.39;92.25;101030.47;4994097;28;20074;-54
2022/01/03 08:04:28;;;;;;;20.85;4.78;;;;;;;10.48;93.95;101032.69;4994645;28;20045;-55
2022/01/03 08:06:56;;;;;;;23.27;5.88;;;;;;;10.45;91.66;101034.84;4994855;28;20050;-46
2022/01/03 08:09:23;;;;;;;31.83;6.10;;;;;;;10.51;94.22;101033.00;4994713;28;20048;-49
2022/01/03 08:11:52;;;;;;;18.95;5.00;;;;;;;10.43;91.67;101033.47;4994419;28;20048;-51
2022/01/03 08:14:20;;;;;;;21.77;4.93;;;;;;;10.34;92.16;101024.13;5008665;28;20044;-49
2022/01/03 08:16:47;;;;;;;22.48;5.15;;;;;;;10.33;91.54;101028.78;5014077;28;20046;-52
2022/01/03 08:19:15;;;;;;;17.10;4.72;;;;;;;10.31;91.94;101038.28;5001110;28;20054;-54
2022/01/03 08:21:43;;;;;;;16.60;4.80;;;;;;;10.31;91.58;101032.84;4994441;28;20444;-51
2022/01/03 08:24:11;;;;;;;17.17;4.55;;;;;;;10.31;91.78;101032.84;5001422;28;20160;-51
2022/01/03 08:26:38;;;;;;;16.85;4.70;;;;;;;10.34;91.35;101032.31;5013442;28;20042;-52
2022/01/03 08:29:06;;;;;;;23.40;5.05;;;;;;;10.38;91.81;101045.16;5013573;28;20050;-54
2022/01/03 08:31:34;;;;;;;16.17;4.35;;;;;;;10.40;91.55;101039.44;5000411;28;20042;-54
2022/01/03 08:34:01;;;;;;;16.60;4.28;;;;;;;10.38;90.74;101038.88;4994789;28;20056;-50
2022/01/03 08:36:29;;;;;;;19.83;4.97;;;;;;;10.50;92.83;101036.78;4994299;28;20062;-56
2022/01/03 08:38:57;;;;;;;21.77;5.03;;;;;;;10.56;92.68;101035.75;4996663;28;20037;-54
2022/01/03 08:41:25;;;;;;;20.88;5.03;;;;;;;10.52;91.31;101033.81;5003976;28;20378;-55
2022/01/03 08:43:53;;;;;;;20.58;5.60;;;;;;;10.53;91.24;101030.81;4994012;28;20074;-54
2022/01/03 08:46:23;;;;;;;18.92;5.40;;;;;;;10.49;91.00;101029.72;4996941;28;20121;-56
2022/01/03 08:48:52;;;;;;;20.58;5.13;;;;;;;10.54;92.93;101026.19;5013110;28;20041;-55
2022/01/03 08:51:20;;;;;;;21.52;5.80;;;;;;;10.46;90.95;101030.22;5008968;28;20045;-49
2022/01/03 08:53:48;;;;;;;18.13;5.00;;;;;;;10.43;90.68;101041.63;4996982;28;20686;-51
2022/01/03 08:56:16;;;;;;;16.65;4.97;;;;;;;10.45;90.93;101040.28;5008791;28;20092;-54
2022/01/03 08:58:43;;;;;;;20.20;5.25;;;;;;;10.42;91.03;101040.00;5012538;28;20045;-55
2022/01/03 09:01:11;;;;;;;19.80;4.78;;;;;;;10.39;90.68;101045.97;5013454;28;20050;-51
2022/01/03 09:03:39;;;;;;;19.15;4.78;;;;;;;10.40;90.97;101058.50;5006056;28;20480;-48
2022/01/03 09:06:11;;;;;;;20.83;5.28;;;;;;;10.40;90.94;101055.78;4993716;28;20061;-49
2022/01/03 09:08:39;;;;;;;21.40;4.95;;;;;;;10.47;90.96;101056.38;4997742;28;20065;-48
2022/01/03 09:11:06;;;;;;;22.33;5.95;;;;;;;10.45;90.50;101055.81;5013169;28;20120;-49
2022/01/03 09:13:34;;;;;;;20.55;4.88;;;;;;;10.43;91.36;101060.72;5002826;28;20038;-53
2022/01/03 09:16:06;;;;;;;17.25;4.13;;;;;;;10.48;93.75;101043.59;4993940;28;20108;-54
2022/01/03 09:18:35;;;;;;;20.55;5.05;;;;;;;10.68;93.90;101032.84;5003753;28;20532;-56
2022/01/03 09:21:03;;;;;;;20.80;5.32;;;;;;;10.59;91.46;101029.75;5001159;28;20046;-50
2022/01/03 09:23:35;;;;;;;19.77;5.50;;;;;;;10.54;91.76;101023.47;5005211;28;20061;-46
2022/01/03 09:28:51;;;;;;;17.55;5.00;;;;;;;10.48;90.94;101028.06;5010998;28;20056;-52
2022/01/03 09:31:35;;;;;;;21.90;5.75;;;;;;;10.48;90.62;101025.31;5007605;28;20050;-51
2022/01/03 09:34:05;;;;;;;28.75;7.18;;;;;;;10.49;91.57;101023.44;5011087;28;20050;-48
2022/01/03 09:36:33;;;;;;;18.98;4.90;;;;;;;10.46;90.75;101013.88;4994325;28;20561;-53
2022/01/03 09:39:02;;;;;;;20.48;5.18;;;;;;;10.46;91.05;101011.16;4993019;28;20483;-52
2022/01/03 09:41:32;;;;;;;22.80;5.22;;;;;;;10.44;90.80;101010.63;4993044;28;20038;-52
2022/01/03 09:44:11;;;;;;;23.88;5.00;;;;;;;10.41;90.83;101014.69;4994534;28;20043;-51
2022/01/03 09:46:41;;;;;;;20.45;5.18;;;;;;;10.42;90.51;101007.31;4993111;28;20046;-48
2022/01/03 09:49:11;;;;;;;20.52;5.50;;;;;;;10.51;90.82;100994.84;4993405;28;20054;-53
2022/01/03 09:51:40;;;;;;;22.73;6.32;;;;;;;10.65;90.57;100989.72;4992959;28;20050;-50
2022/01/03 09:54:16;;;;;;;21.88;5.10;;;;;;;10.70;90.80;101006.09;5001738;28;20050;-51
2022/01/03 09:56:44;;;;;;;24.35;6.53;;;;;;;10.70;90.24;101005.28;5007597;28;20052;-49
2022/01/03 09:59:12;;;;;;;20.63;5.63;;;;;;;10.73;90.01;101004.78;5016715;28;20057;-48
2022/01/03 10:01:41;;;;;;;22.85;4.80;;;;;;;10.71;90.60;100999.59;5016841;28;20060;-47
2022/01/03 10:04:12;;;;;;;19.55;5.68;;;;;;;10.69;89.23;100995.50;5009102;28;20048;-46
2022/01/03 10:06:40;;;;;;;18.85;5.03;;;;;;;10.70;90.55;100997.13;5009463;28;20065;-47
2022/01/03 10:09:08;;;;;;;25.70;5.85;;;;;;;10.66;88.99;100997.66;5007930;28;20046;-53
2022/01/03 10:11:36;;;;;;;25.02;5.85;;;;;;;10.74;88.92;100998.25;4995423;28;20053;-49
2022/01/03 10:14:11;;;;;;;19.70;5.13;;;;;;;10.73;89.60;100989.25;4996607;28;20054;-53
2022/01/03 10:16:44;;;;;;;21.60;5.88;;;;;;;10.80;89.89;100992.56;5004559;28;20342;-49
2022/01/03 10:19:23;;;;;;;20.17;5.43;;;;;;;10.78;89.29;100993.91;5001061;28;20054;-48
2022/01/03 10:21:51;;;;;;;19.60;5.18;;;;;;;10.79;89.69;100987.34;4996794;28;20046;-46
2022/01/03 10:24:33;;;;;;;19.08;4.78;;;;;;;10.79;88.96;100984.63;4996638;28;20050;-46
2022/01/03 10:27:02;;;;;;;23.10;6.07;;;;;;;10.79;89.14;100979.19;5001269;28;20050;-52
2022/01/03 10:29:31;;;;;;;23.67;5.53;;;;;;;10.73;88.63;100985.72;5007593;28;20046;-47
2022/01/03 10:32:02;;;;;;;24.13;5.72;;;;;;;10.63;88.66;100997.34;4996653;28;20046;-49
2022/01/03 10:34:32;;;;;;;24.52;5.60;;;;;;;10.61;89.24;100994.91;4996110;28;20480;-50
2022/01/03 10:37:11;;;;;;;21.98;5.93;;;;;;;10.58;89.45;100995.44;4997238;28;20057;-50
2022/01/03 10:39:39;;;;;;;20.25;5.40;;;;;;;10.56;89.48;100986.72;5009007;28;20136;-50
2022/01/03 10:42:18;;;;;;;25.33;5.57;;;;;;;10.55;89.70;100990.50;5014464;28;20096;-51
2022/01/03 10:44:47;;;;;;;18.42;5.38;;;;;;;10.54;89.80;100982.59;5011379;28;20054;-51
2022/01/03 10:47:32;;;;;;;24.58;5.93;;;;;;;10.53;89.35;100986.41;4996056;28;20035;-47
2022/01/03 10:50:15;;;;;;;19.35;5.20;;;;;;;10.53;89.31;100981.75;5004867;28;20141;-50
2022/01/03 10:52:46;;;;;;;20.67;5.60;;;;;;;10.54;89.25;100980.69;4651540;28;10000271;-51
2022/01/03 10:55:25;;;;;;;26.52;6.20;;;;;;;10.53;89.20;100975.50;4994216;28;20769;-49
2022/01/03 10:57:59;;;;;;;19.70;5.30;;;;;;;10.56;89.14;100969.50;4993004;28;20050;-51
2022/01/03 11:00:37;;;;;;;23.92;5.85;;;;;;;10.55;88.77;100968.72;4995303;28;20047;-51
2022/01/03 11:03:09;;;;;;;26.00;6.13;;;;;;;10.54;88.86;100966.25;4994335;28;20054;-50
2022/01/03 11:05:38;;;;;;;22.60;5.95;;;;;;;10.54;88.84;100967.06;4994437;28;20056;-49
2022/01/03 11:10:44;;;;;;;20.38;6.93;;;;;;;10.65;90.35;100963.34;4994063;28;20493;-49
2022/01/03 11:13:22;;;;;;;26.42;6.82;;;;;;;10.84;92.85;100946.50;4992949;28;20038;-47
2022/01/03 11:15:54;;;;;;;25.13;5.80;;;;;;;10.87;89.47;100945.94;4993788;28;20497;-51
2022/01/03 11:18:27;;;;;;;21.15;5.18;;;;;;;10.73;88.45;100944.84;4994745;28;20048;-49
2022/01/03 11:21:16;;;;;;;20.55;6.05;;;;;;;10.78;89.73;100939.41;4994105;28;20050;-51
2022/01/03 11:24:11;;;;;;;19.25;4.60;;;;;;;10.71;89.18;100939.63;4998121;28;20160;-50
2022/01/03 11:26:49;;;;;;;22.17;5.68;;;;;;;10.71;88.76;100930.66;4993812;28;20050;-51
2022/01/03 11:29:17;;;;;;;21.98;5.75;;;;;;;10.81;89.58;100933.41;4994704;28;20042;-49
2022/01/03 11:31:47;;;;;;;24.85;6.22;;;;;;;10.93;90.83;100944.09;5007476;28;20073;-52
2022/01/03 11:34:14;;;;;;;21.13;5.60;;;;;;;10.79;88.74;100941.84;5012093;28;20511;-52
2022/01/03 11:36:59;;;;;;;23.55;6.05;;;;;;;10.73;88.99;100932.03;5012822;28;20050;-48
2022/01/03 11:39:32;;;;;;;19.00;5.78;;;;;;;10.73;88.74;100926.56;5011756;28;20046;-50
2022/01/03 11:42:00;;;;;;;22.08;6.25;;;;;;;10.83;91.95;100925.78;5005707;28;20393;-52
2022/01/03 11:44:28;;;;;;;24.00;8.07;;;;;;;10.86;91.71;100923.34;4993539;28;20111;-49
2022/01/03 11:46:57;;;;;;;25.75;6.40;;;;;;;10.86;88.54;100925.25;4994836;28;20043;-49